sensor_id;sensor_type;location;lat;lon;timestamp;temperature;humidity
3492;DHT22;1760;52.480;13.422;2023-04-25T00:02:15;9.80;99.90
3492;DHT22;1760;52.480;13.422;2023-04-25T00:04:43;9.70;99.90
3492;DHT22;1760;52.480;13.422;2023-04-25T00:07:10;9.70;99.90
3492;DHT22;1760;52.480;13.422;2023-04-25T00:09:37;9.70;99.90
3492;DHT22;1760;52.480;13.422;2023-04-25T00:12:04;9.70;99.90
3492;DHT22;1760;52.480;13.422;2023-04-25T00:14:31;9.60;99.90
3492;DHT22;1760;52.480;13.422;2023-04-25T00:16:59;9.60;99.90
3492;DHT22;1760;52.480;13.422;2023-04-25T00:19:26;9.60;99.90
3492;DHT22;1760;52.480;13.422;2023-04-25T00:21:55;9.60;99.90
3492;DHT22;1760;52.480;13.422;2023-04-25T00:24:22;9.60;99.90
3492;DHT22;1760;52.480;13.422;2023-04-25T00:26:49;9.50;99.90
3492;DHT22;1760;52.480;13.422;2023-04-25T00:29:15;9.50;99.90
3492;DHT22;1760;52.480;13.422;2023-04-25T00:31:42;9.50;99.90
3492;DHT22;1760;52.480;13.422;2023-04-25T00:34:09;9.50;99.90
3492;DHT22;1760;52.480;13.422;2023-04-25T00:36:36;9.50;99.90
3492;DHT22;1760;52.480;13.422;2023-04-25T00:39:04;9.50;99.90
3492;DHT22;1760;52.480;13.422;2023-04-25T00:41:32;9.50;99.90
3492;DHT22;1760;52.480;13.422;2023-04-25T00:44:00;9.60;99.90
3492;DHT22;1760;52.480;13.422;2023-04-25T00:46:28;9.60;99.90
3492;DHT22;1760;52.480;13.422;2023-04-25T00:48:55;9.60;99.90
3492;DHT22;1760;52.480;13.422;2023-04-25T00:51:22;9.60;99.90
3492;DHT22;1760;52.480;13.422;2023-04-25T00:53:50;9.60;99.90
3492;DHT22;1760;52.480;13.422;2023-04-25T00:56:19;9.70;99.90
3492;DHT22;1760;52.480;13.422;2023-04-25T00:58:48;9.70;99.90
3492;DHT22;1760;52.480;13.422;2023-04-25T01:01:16;9.80;99.90
3492;DHT22;1760;52.480;13.422;2023-04-25T01:03:43;9.80;99.90
3492;DHT22;1760;52.480;13.422;2023-04-25T01:06:12;9.90;99.90
3492;DHT22;1760;52.480;13.422;2023-04-25T01:08:39;9.80;99.90
3492;DHT22;1760;52.480;13.422;2023-04-25T01:11:09;9.90;99.90
3492;DHT22;1760;52.480;13.422;2023-04-25T01:13:37;9.80;99.90
3492;DHT22;1760;52.480;13.422;2023-04-25T01:16:06;9.80;99.90
3492;DHT22;1760;52.480;13.422;2023-04-25T01:18:33;9.70;99.90
3492;DHT22;1760;52.480;13.422;2023-04-25T01:21:07;9.70;99.90
3492;DHT22;1760;52.480;13.422;2023-04-25T01:23:36;9.70;99.90
3492;DHT22;1760;52.480;13.422;2023-04-25T01:26:04;9.60;99.90
3492;DHT22;1760;52.480;13.422;2023-04-25T01:28:31;9.60;99.90
3492;DHT22;1760;52.480;13.422;2023-04-25T01:31:01;9.60;99.90
3492;DHT22;1760;52.480;13.422;2023-04-25T01:33:29;9.60;99.90
3492;DHT22;1760;52.480;13.422;2023-04-25T01:35:58;9.60;99.90
3492;DHT22;1760;52.480;13.422;2023-04-25T01:38:27;9.60;99.90
3492;DHT22;1760;52.480;13.422;2023-04-25T01:40:54;9.60;99.90
3492;DHT22;1760;52.480;13.422;2023-04-25T01:43:21;9.60;99.90
3492;DHT22;1760;52.480;13.422;2023-04-25T01:45:49;9.70;99.90
3492;DHT22;1760;52.480;13.422;2023-04-25T01:48:17;9.70;99.90
3492;DHT22;1760;52.480;13.422;2023-04-25T01:50:44;9.60;99.90
3492;DHT22;1760;52.480;13.422;2023-04-25T01:53:12;9.70;99.90
3492;DHT22;1760;52.480;13.422;2023-04-25T01:55:41;9.70;99.90
3492;DHT22;1760;52.480;13.422;2023-04-25T01:58:08;9.70;99.90
3492;DHT22;1760;52.480;13.422;2023-04-25T02:00:38;9.70;99.90
3492;DHT22;1760;52.480;13.422;2023-04-25T02:03:06;9.70;99.90
3492;DHT22;1760;52.480;13.422;2023-04-25T02:05:35;9.60;99.90
3492;DHT22;1760;52.480;13.422;2023-04-25T02:08:02;9.60;99.90
3492;DHT22;1760;52.480;13.422;2023-04-25T02:10:29;9.60;99.90
3492;DHT22;1760;52.480;13.422;2023-04-25T02:12:58;9.70;99.90
3492;DHT22;1760;52.480;13.422;2023-04-25T02:15:25;9.60;99.90
3492;DHT22;1760;52.480;13.422;2023-04-25T02:17:52;9.60;99.90
3492;DHT22;1760;52.480;13.422;2023-04-25T02:20:20;9.60;99.90
3492;DHT22;1760;52.480;13.422;2023-04-25T02:22:47;9.60;99.90
3492;DHT22;1760;52.480;13.422;2023-04-25T02:25:14;9.60;99.90
3492;DHT22;1760;52.480;13.422;2023-04-25T02:27:42;9.60;99.90
3492;DHT22;1760;52.480;13.422;2023-04-25T02:30:11;9.60;99.90
3492;DHT22;1760;52.480;13.422;2023-04-25T02:32:38;9.70;99.90
3492;DHT22;1760;52.480;13.422;2023-04-25T02:35:06;9.70;99.90
3492;DHT22;1760;52.480;13.422;2023-04-25T02:37:34;9.70;99.90
3492;DHT22;1760;52.480;13.422;2023-04-25T02:40:05;9.70;99.90
3492;DHT22;1760;52.480;13.422;2023-04-25T02:42:32;9.60;99.90
3492;DHT22;1760;52.480;13.422;2023-04-25T02:44:59;9.60;99.90
3492;DHT22;1760;52.480;13.422;2023-04-25T02:47:27;9.60;99.90
3492;DHT22;1760;52.480;13.422;2023-04-25T02:49:54;9.50;99.90
3492;DHT22;1760;52.480;13.422;2023-04-25T02:52:21;9.50;99.90
3492;DHT22;1760;52.480;13.422;2023-04-25T02:54:48;9.50;99.90
3492;DHT22;1760;52.480;13.422;2023-04-25T02:57:15;9.50;99.90
3492;DHT22;1760;52.480;13.422;2023-04-25T02:59:42;9.50;99.90
3492;DHT22;1760;52.480;13.422;2023-04-25T03:02:09;9.50;99.90
3492;DHT22;1760;52.480;13.422;2023-04-25T03:04:37;9.50;99.90
3492;DHT22;1760;52.480;13.422;2023-04-25T03:07:04;9.50;99.90
3492;DHT22;1760;52.480;13.422;2023-04-25T03:09:31;9.50;99.90
3492;DHT22;1760;52.480;13.422;2023-04-25T03:11:58;9.50;99.90
3492;DHT22;1760;52.480;13.422;2023-04-25T03:14:24;9.60;99.90
3492;DHT22;1760;52.480;13.422;2023-04-25T03:16:51;9.50;99.90
3492;DHT22;1760;52.480;13.422;2023-04-25T03:19:18;9.50;99.90
3492;DHT22;1760;52.480;13.422;2023-04-25T03:21:47;9.50;99.90
3492;DHT22;1760;52.480;13.422;2023-04-25T03:24:14;9.50;99.90
3492;DHT22;1760;52.480;13.422;2023-04-25T03:26:41;9.50;99.90
3492;DHT22;1760;52.480;13.422;2023-04-25T03:29:08;9.50;99.90
3492;DHT22;1760;52.480;13.422;2023-04-25T03:31:35;9.50;99.90
3492;DHT22;1760;52.480;13.422;2023-04-25T03:34:02;9.50;99.90
3492;DHT22;1760;52.480;13.422;2023-04-25T03:36:28;9.50;99.90
3492;DHT22;1760;52.480;13.422;2023-04-25T03:38:57;9.40;99.90
3492;DHT22;1760;52.480;13.422;2023-04-25T03:41:24;9.40;99.90
3492;DHT22;1760;52.480;13.422;2023-04-25T03:43:51;9.40;99.90
3492;DHT22;1760;52.480;13.422;2023-04-25T03:46:18;9.30;99.90
3492;DHT22;1760;52.480;13.422;2023-04-25T03:48:45;9.30;99.90
3492;DHT22;1760;52.480;13.422;2023-04-25T03:51:12;9.20;99.90
3492;DHT22;1760;52.480;13.422;2023-04-25T03:53:39;9.20;99.90
3492;DHT22;1760;52.480;13.422;2023-04-25T03:56:07;9.20;99.90
3492;DHT22;1760;52.480;13.422;2023-04-25T03:58:35;9.20;99.90
3492;DHT22;1760;52.480;13.422;2023-04-25T04:01:01;9.20;99.90
3492;DHT22;1760;52.480;13.422;2023-04-25T04:03:32;9.20;99.90
3492;DHT22;1760;52.480;13.422;2023-04-25T04:05:59;9.20;99.90
3492;DHT22;1760;52.480;13.422;2023-04-25T04:08:26;9.30;99.90
3492;DHT22;1760;52.480;13.422;2023-04-25T04:10:53;9.30;99.90
3492;DHT22;1760;52.480;13.422;2023-04-25T04:13:21;9.30;99.90
3492;DHT22;1760;52.480;13.422;2023-04-25T04:15:48;9.40;99.90
3492;DHT22;1760;52.480;13.422;2023-04-25T04:18:15;9.30;99.90
3492;DHT22;1760;52.480;13.422;2023-04-25T04:20:42;9.30;99.90
3492;DHT22;1760;52.480;13.422;2023-04-25T04:23:08;9.30;99.90
3492;DHT22;1760;52.480;13.422;2023-04-25T04:25:36;9.30;99.90
3492;DHT22;1760;52.480;13.422;2023-04-25T04:28:03;9.30;99.90
3492;DHT22;1760;52.480;13.422;2023-04-25T04:30:32;9.30;99.90
3492;DHT22;1760;52.480;13.422;2023-04-25T04:33:01;9.30;99.90
3492;DHT22;1760;52.480;13.422;2023-04-25T04:35:29;9.30;99.90
3492;DHT22;1760;52.480;13.422;2023-04-25T04:37:55;9.30;99.90
3492;DHT22;1760;52.480;13.422;2023-04-25T04:40:22;9.30;99.90
3492;DHT22;1760;52.480;13.422;2023-04-25T04:42:51;9.30;99.90
3492;DHT22;1760;52.480;13.422;2023-04-25T04:45:18;9.30;99.90
3492;DHT22;1760;52.480;13.422;2023-04-25T04:47:47;9.30;99.90
3492;DHT22;1760;52.480;13.422;2023-04-25T04:50:15;9.30;99.90
3492;DHT22;1760;52.480;13.422;2023-04-25T04:52:44;9.30;99.90
3492;DHT22;1760;52.480;13.422;2023-04-25T04:55:11;9.40;99.90
3492;DHT22;1760;52.480;13.422;2023-04-25T04:57:38;9.40;99.90
3492;DHT22;1760;52.480;13.422;2023-04-25T05:00:06;9.40;99.90
3492;DHT22;1760;52.480;13.422;2023-04-25T05:02:37;9.40;99.90
3492;DHT22;1760;52.480;13.422;2023-04-25T05:05:05;9.50;99.90
3492;DHT22;1760;52.480;13.422;2023-04-25T05:07:33;9.50;99.90
3492;DHT22;1760;52.480;13.422;2023-04-25T05:09:59;9.50;99.90
3492;DHT22;1760;52.480;13.422;2023-04-25T05:12:26;9.50;99.90
3492;DHT22;1760;52.480;13.422;2023-04-25T05:14:53;9.50;99.90
3492;DHT22;1760;52.480;13.422;2023-04-25T05:17:20;9.60;99.90
3492;DHT22;1760;52.480;13.422;2023-04-25T05:19:47;9.50;99.90
3492;DHT22;1760;52.480;13.422;2023-04-25T05:22:15;9.50;99.90
3492;DHT22;1760;52.480;13.422;2023-04-25T05:24:42;9.50;99.90
3492;DHT22;1760;52.480;13.422;2023-04-25T05:27:09;9.50;99.90
3492;DHT22;1760;52.480;13.422;2023-04-25T05:29:36;9.60;99.90
3492;DHT22;1760;52.480;13.422;2023-04-25T05:32:04;9.70;99.90
3492;DHT22;1760;52.480;13.422;2023-04-25T05:34:33;9.70;99.90
3492;DHT22;1760;52.480;13.422;2023-04-25T05:36:59;9.70;99.90
3492;DHT22;1760;52.480;13.422;2023-04-25T05:39:28;9.70;99.90
3492;DHT22;1760;52.480;13.422;2023-04-25T05:41:55;9.70;99.90
3492;DHT22;1760;52.480;13.422;2023-04-25T05:44:22;9.70;99.90
3492;DHT22;1760;52.480;13.422;2023-04-25T05:46:49;9.70;99.90
3492;DHT22;1760;52.480;13.422;2023-04-25T05:49:16;9.80;99.90
3492;DHT22;1760;52.480;13.422;2023-04-25T05:51:43;9.80;99.90
3492;DHT22;1760;52.480;13.422;2023-04-25T05:54:09;9.70;99.90
3492;DHT22;1760;52.480;13.422;2023-04-25T05:56:38;9.60;99.90
3492;DHT22;1760;52.480;13.422;2023-04-25T05:59:05;9.60;99.90
3492;DHT22;1760;52.480;13.422;2023-04-25T06:01:31;9.60;99.90
3492;DHT22;1760;52.480;13.422;2023-04-25T06:03:58;9.70;99.90
3492;DHT22;1760;52.480;13.422;2023-04-25T06:06:28;9.60;99.90
3492;DHT22;1760;52.480;13.422;2023-04-25T06:08:54;9.60;99.90
3492;DHT22;1760;52.480;13.422;2023-04-25T06:11:21;9.60;99.90
3492;DHT22;1760;52.480;13.422;2023-04-25T06:13:50;9.60;99.90
3492;DHT22;1760;52.480;13.422;2023-04-25T06:16:17;9.50;99.90
3492;DHT22;1760;52.480;13.422;2023-04-25T06:18:43;9.50;99.90
3492;DHT22;1760;52.480;13.422;2023-04-25T06:21:10;9.50;99.90
3492;DHT22;1760;52.480;13.422;2023-04-25T06:23:37;9.50;99.90
3492;DHT22;1760;52.480;13.422;2023-04-25T06:26:04;9.50;99.90
3492;DHT22;1760;52.480;13.422;2023-04-25T06:28:31;9.50;99.90
3492;DHT22;1760;52.480;13.422;2023-04-25T06:30:59;9.60;99.90
3492;DHT22;1760;52.480;13.422;2023-04-25T06:33:27;9.60;99.90
3492;DHT22;1760;52.480;13.422;2023-04-25T06:35:54;9.60;99.90
3492;DHT22;1760;52.480;13.422;2023-04-25T06:38:21;9.60;99.90
3492;DHT22;1760;52.480;13.422;2023-04-25T06:40:48;9.60;99.90
3492;DHT22;1760;52.480;13.422;2023-04-25T06:43:15;9.60;99.90
3492;DHT22;1760;52.480;13.422;2023-04-25T06:45:42;9.60;99.90
3492;DHT22;1760;52.480;13.422;2023-04-25T06:48:10;9.60;99.90
3492;DHT22;1760;52.480;13.422;2023-04-25T06:50:37;9.60;99.90
3492;DHT22;1760;52.480;13.422;2023-04-25T06:53:04;9.60;99.90
3492;DHT22;1760;52.480;13.422;2023-04-25T06:55:31;9.60;99.90
3492;DHT22;1760;52.480;13.422;2023-04-25T06:57:57;9.60;99.90
3492;DHT22;1760;52.480;13.422;2023-04-25T07:00:24;9.50;99.90
3492;DHT22;1760;52.480;13.422;2023-04-25T07:02:51;9.50;99.90
3492;DHT22;1760;52.480;13.422;2023-04-25T07:05:20;9.50;99.90
3492;DHT22;1760;52.480;13.422;2023-04-25T07:07:46;9.50;99.90
3492;DHT22;1760;52.480;13.422;2023-04-25T07:10:13;9.60;99.90
3492;DHT22;1760;52.480;13.422;2023-04-25T07:12:40;9.60;99.90
3492;DHT22;1760;52.480;13.422;2023-04-25T07:15:08;9.50;99.90
3492;DHT22;1760;52.480;13.422;2023-04-25T07:17:36;9.50;99.90
3492;DHT22;1760;52.480;13.422;2023-04-25T07:20:03;9.60;99.90
3492;DHT22;1760;52.480;13.422;2023-04-25T07:22:32;9.70;99.90
3492;DHT22;1760;52.480;13.422;2023-04-25T07:25:02;9.70;99.90
3492;DHT22;1760;52.480;13.422;2023-04-25T07:27:29;9.60;99.90
3492;DHT22;1760;52.480;13.422;2023-04-25T07:29:56;9.50;99.90
3492;DHT22;1760;52.480;13.422;2023-04-25T07:32:24;9.50;99.90
3492;DHT22;1760;52.480;13.422;2023-04-25T07:34:51;9.50;99.90
3492;DHT22;1760;52.480;13.422;2023-04-25T07:37:18;9.40;99.90
3492;DHT22;1760;52.480;13.422;2023-04-25T07:39:46;9.20;99.90
3492;DHT22;1760;52.480;13.422;2023-04-25T07:42:13;9.20;99.90
3492;DHT22;1760;52.480;13.422;2023-04-25T07:44:40;9.10;99.90
3492;DHT22;1760;52.480;13.422;2023-04-25T07:47:08;9.10;99.90
3492;DHT22;1760;52.480;13.422;2023-04-25T07:49:36;9.00;99.90
3492;DHT22;1760;52.480;13.422;2023-04-25T07:52:04;9.10;99.90
3492;DHT22;1760;52.480;13.422;2023-04-25T07:54:31;9.20;99.90
3492;DHT22;1760;52.480;13.422;2023-04-25T07:57:00;9.30;99.90
3492;DHT22;1760;52.480;13.422;2023-04-25T07:59:27;9.40;99.90
3492;DHT22;1760;52.480;13.422;2023-04-25T08:01:54;9.50;99.90
3492;DHT22;1760;52.480;13.422;2023-04-25T08:04:22;9.50;99.90
3492;DHT22;1760;52.480;13.422;2023-04-25T08:06:50;9.50;99.90
3492;DHT22;1760;52.480;13.422;2023-04-25T08:09:18;9.40;99.90
3492;DHT22;1760;52.480;13.422;2023-04-25T08:11:46;9.30;99.90
3492;DHT22;1760;52.480;13.422;2023-04-25T08:14:14;9.30;99.90
3492;DHT22;1760;52.480;13.422;2023-04-25T08:16:41;9.40;99.90
3492;DHT22;1760;52.480;13.422;2023-04-25T08:19:09;9.50;99.90
3492;DHT22;1760;52.480;13.422;2023-04-25T08:21:38;9.60;99.90
3492;DHT22;1760;52.480;13.422;2023-04-25T08:24:05;9.70;99.90
3492;DHT22;1760;52.480;13.422;2023-04-25T08:26:32;9.70;99.90
3492;DHT22;1760;52.480;13.422;2023-04-25T08:29:00;9.80;99.90
3492;DHT22;1760;52.480;13.422;2023-04-25T08:31:28;10.20;99.90
3492;DHT22;1760;52.480;13.422;2023-04-25T08:33:55;11.10;99.90
3492;DHT22;1760;52.480;13.422;2023-04-25T08:36:22;11.70;99.90
3492;DHT22;1760;52.480;13.422;2023-04-25T08:38:49;12.00;99.90
3492;DHT22;1760;52.480;13.422;2023-04-25T08:41:16;12.10;99.90
3492;DHT22;1760;52.480;13.422;2023-04-25T08:43:45;12.10;99.90
3492;DHT22;1760;52.480;13.422;2023-04-25T08:46:17;12.00;99.90
3492;DHT22;1760;52.480;13.422;2023-04-25T08:48:46;11.60;99.90
3492;DHT22;1760;52.480;13.422;2023-04-25T08:51:22;11.50;99.90
3492;DHT22;1760;52.480;13.422;2023-04-25T08:53:51;11.20;99.90
3492;DHT22;1760;52.480;13.422;2023-04-25T08:56:18;11.00;99.90
3492;DHT22;1760;52.480;13.422;2023-04-25T08:58:48;10.90;99.90
3492;DHT22;1760;52.480;13.422;2023-04-25T09:01:16;10.90;99.90
3492;DHT22;1760;52.480;13.422;2023-04-25T09:03:45;11.50;99.90
3492;DHT22;1760;52.480;13.422;2023-04-25T09:06:13;12.10;99.90
3492;DHT22;1760;52.480;13.422;2023-04-25T09:08:41;12.90;99.90
3492;DHT22;1760;52.480;13.422;2023-04-25T09:11:09;14.00;99.90
3492;DHT22;1760;52.480;13.422;2023-04-25T09:13:36;15.20;96.30
3492;DHT22;1760;52.480;13.422;2023-04-25T09:16:03;15.80;90.60
3492;DHT22;1760;52.480;13.422;2023-04-25T09:18:31;16.40;86.40
3492;DHT22;1760;52.480;13.422;2023-04-25T09:21:06;17.10;82.30
3492;DHT22;1760;52.480;13.422;2023-04-25T09:23:39;17.40;75.80
3492;DHT22;1760;52.480;13.422;2023-04-25T09:26:07;18.10;70.00
3492;DHT22;1760;52.480;13.422;2023-04-25T09:28:34;18.10;67.00
3492;DHT22;1760;52.480;13.422;2023-04-25T09:31:03;18.30;65.70
3492;DHT22;1760;52.480;13.422;2023-04-25T09:33:31;18.70;63.50
3492;DHT22;1760;52.480;13.422;2023-04-25T09:36:04;18.70;60.30
3492;DHT22;1760;52.480;13.422;2023-04-25T09:38:39;18.20;61.60
3492;DHT22;1760;52.480;13.422;2023-04-25T09:41:07;18.10;60.80
3492;DHT22;1760;52.480;13.422;2023-04-25T09:43:36;17.70;62.70
3492;DHT22;1760;52.480;13.422;2023-04-25T09:46:08;17.10;64.10
3492;DHT22;1760;52.480;13.422;2023-04-25T09:48:35;16.60;65.80
3492;DHT22;1760;52.480;13.422;2023-04-25T09:51:10;16.10;68.00
3492;DHT22;1760;52.480;13.422;2023-04-25T09:53:39;15.50;70.00
3492;DHT22;1760;52.480;13.422;2023-04-25T09:56:08;14.50;73.20
3492;DHT22;1760;52.480;13.422;2023-04-25T09:58:37;13.90;75.80
3492;DHT22;1760;52.480;13.422;2023-04-25T10:01:05;13.50;78.00
3492;DHT22;1760;52.480;13.422;2023-04-25T10:03:35;13.30;79.00
3492;DHT22;1760;52.480;13.422;2023-04-25T10:06:04;13.10;79.90
3492;DHT22;1760;52.480;13.422;2023-04-25T10:08:35;13.20;83.40
3492;DHT22;1760;52.480;13.422;2023-04-25T10:11:03;13.50;84.00
3492;DHT22;1760;52.480;13.422;2023-04-25T10:13:31;14.10;80.90
3492;DHT22;1760;52.480;13.422;2023-04-25T10:16:00;15.00;76.30
3492;DHT22;1760;52.480;13.422;2023-04-25T10:18:28;15.10;72.90
3492;DHT22;1760;52.480;13.422;2023-04-25T10:20:57;14.60;71.70
3492;DHT22;1760;52.480;13.422;2023-04-25T10:23:25;14.10;72.90
3492;DHT22;1760;52.480;13.422;2023-04-25T10:25:54;13.70;73.10
3492;DHT22;1760;52.480;13.422;2023-04-25T10:28:21;13.40;74.40
3492;DHT22;1760;52.480;13.422;2023-04-25T10:30:58;13.00;76.30
3492;DHT22;1760;52.480;13.422;2023-04-25T10:33:35;12.80;77.00
3492;DHT22;1760;52.480;13.422;2023-04-25T10:36:13;12.50;77.00
3492;DHT22;1760;52.480;13.422;2023-04-25T10:38:42;12.30;79.00
3492;DHT22;1760;52.480;13.422;2023-04-25T10:41:12;12.10;80.20
3492;DHT22;1760;52.480;13.422;2023-04-25T10:43:41;11.90;82.70
3492;DHT22;1760;52.480;13.422;2023-04-25T10:46:16;11.90;84.50
3492;DHT22;1760;52.480;13.422;2023-04-25T10:48:50;11.80;84.40
3492;DHT22;1760;52.480;13.422;2023-04-25T10:51:19;11.70;85.70
3492;DHT22;1760;52.480;13.422;2023-04-25T10:53:47;11.60;87.30
3492;DHT22;1760;52.480;13.422;2023-04-25T10:56:19;11.50;88.80
3492;DHT22;1760;52.480;13.422;2023-04-25T10:58:47;11.40;90.10
3492;DHT22;1760;52.480;13.422;2023-04-25T11:01:15;11.40;90.80
3492;DHT22;1760;52.480;13.422;2023-04-25T11:03:43;11.40;89.50
3492;DHT22;1760;52.480;13.422;2023-04-25T11:06:19;11.40;90.10
3492;DHT22;1760;52.480;13.422;2023-04-25T11:08:49;11.50;90.90
3492;DHT22;1760;52.480;13.422;2023-04-25T11:11:18;11.80;90.90
3492;DHT22;1760;52.480;13.422;2023-04-25T11:13:48;12.10;90.40
3492;DHT22;1760;52.480;13.422;2023-04-25T11:16:15;12.20;89.80
3492;DHT22;1760;52.480;13.422;2023-04-25T11:18:43;12.10;88.80
3492;DHT22;1760;52.480;13.422;2023-04-25T11:21:10;12.00;89.80
3492;DHT22;1760;52.480;13.422;2023-04-25T11:23:37;11.80;89.30
3492;DHT22;1760;52.480;13.422;2023-04-25T11:26:04;11.80;90.10
3492;DHT22;1760;52.480;13.422;2023-04-25T11:28:32;11.80;89.50
3492;DHT22;1760;52.480;13.422;2023-04-25T11:30:59;11.70;90.40
3492;DHT22;1760;52.480;13.422;2023-04-25T11:33:26;11.60;92.60
3492;DHT22;1760;52.480;13.422;2023-04-25T11:35:54;11.40;91.10
3492;DHT22;1760;52.480;13.422;2023-04-25T11:38:22;11.20;90.10
3492;DHT22;1760;52.480;13.422;2023-04-25T11:40:52;11.00;87.00
3492;DHT22;1760;52.480;13.422;2023-04-25T11:43:20;10.80;85.20
3492;DHT22;1760;52.480;13.422;2023-04-25T11:45:50;10.70;85.40
3492;DHT22;1760;52.480;13.422;2023-04-25T11:48:18;10.80;85.60
3492;DHT22;1760;52.480;13.422;2023-04-25T11:50:45;10.80;83.80
3492;DHT22;1760;52.480;13.422;2023-04-25T11:53:12;10.90;85.40
3492;DHT22;1760;52.480;13.422;2023-04-25T11:55:39;10.90;82.90
3492;DHT22;1760;52.480;13.422;2023-04-25T11:58:08;10.90;82.40
3492;DHT22;1760;52.480;13.422;2023-04-25T12:00:35;11.10;82.50
3492;DHT22;1760;52.480;13.422;2023-04-25T12:03:04;11.20;80.00
3492;DHT22;1760;52.480;13.422;2023-04-25T12:05:41;11.10;79.00
3492;DHT22;1760;52.480;13.422;2023-04-25T12:08:11;11.00;80.10
3492;DHT22;1760;52.480;13.422;2023-04-25T12:10:39;11.10;81.20
3492;DHT22;1760;52.480;13.422;2023-04-25T12:13:23;11.10;82.30
3492;DHT22;1760;52.480;13.422;2023-04-25T12:15:50;11.20;82.60
3492;DHT22;1760;52.480;13.422;2023-04-25T12:18:22;11.20;82.10
3492;DHT22;1760;52.480;13.422;2023-04-25T12:20:49;11.20;83.40
3492;DHT22;1760;52.480;13.422;2023-04-25T12:23:16;11.20;84.40
3492;DHT22;1760;52.480;13.422;2023-04-25T12:25:44;11.10;84.90
3492;DHT22;1760;52.480;13.422;2023-04-25T12:28:13;11.20;85.70
3492;DHT22;1760;52.480;13.422;2023-04-25T12:30:57;11.50;85.20
3492;DHT22;1760;52.480;13.422;2023-04-25T12:33:28;11.70;81.80
3492;DHT22;1760;52.480;13.422;2023-04-25T12:35:56;11.90;82.20
3492;DHT22;1760;52.480;13.422;2023-04-25T12:38:24;12.00;77.40
3492;DHT22;1760;52.480;13.422;2023-04-25T12:40:52;12.10;76.60
3492;DHT22;1760;52.480;13.422;2023-04-25T12:43:18;12.20;74.40
3492;DHT22;1760;52.480;13.422;2023-04-25T12:45:47;12.20;73.80
3492;DHT22;1760;52.480;13.422;2023-04-25T12:48:14;12.20;74.90
3492;DHT22;1760;52.480;13.422;2023-04-25T12:50:43;12.40;76.30
3492;DHT22;1760;52.480;13.422;2023-04-25T12:53:10;12.60;75.50
3492;DHT22;1760;52.480;13.422;2023-04-25T12:55:37;12.50;76.30
3492;DHT22;1760;52.480;13.422;2023-04-25T12:58:04;12.20;74.90
3492;DHT22;1760;52.480;13.422;2023-04-25T13:00:33;12.10;75.90
3492;DHT22;1760;52.480;13.422;2023-04-25T13:03:00;11.90;77.30
3492;DHT22;1760;52.480;13.422;2023-04-25T13:05:27;11.80;76.70
3492;DHT22;1760;52.480;13.422;2023-04-25T13:07:57;11.70;76.80
3492;DHT22;1760;52.480;13.422;2023-04-25T13:10:25;11.60;75.50
3492;DHT22;1760;52.480;13.422;2023-04-25T13:12:52;11.60;77.70
3492;DHT22;1760;52.480;13.422;2023-04-25T13:15:19;11.80;79.30
3492;DHT22;1760;52.480;13.422;2023-04-25T13:17:46;11.80;79.40
3492;DHT22;1760;52.480;13.422;2023-04-25T13:20:13;11.90;80.30
3492;DHT22;1760;52.480;13.422;2023-04-25T13:22:42;11.90;76.50
3492;DHT22;1760;52.480;13.422;2023-04-25T13:25:12;11.90;75.40
3492;DHT22;1760;52.480;13.422;2023-04-25T13:27:39;11.80;76.60
3492;DHT22;1760;52.480;13.422;2023-04-25T13:30:07;11.70;76.10
3492;DHT22;1760;52.480;13.422;2023-04-25T13:32:34;11.70;77.00
3492;DHT22;1760;52.480;13.422;2023-04-25T13:35:03;11.60;77.50
3492;DHT22;1760;52.480;13.422;2023-04-25T13:37:30;11.60;79.00
3492;DHT22;1760;52.480;13.422;2023-04-25T13:40:22;11.60;79.90
3492;DHT22;1760;52.480;13.422;2023-04-25T13:42:49;11.50;80.00
3492;DHT22;1760;52.480;13.422;2023-04-25T13:45:16;11.50;81.10
3492;DHT22;1760;52.480;13.422;2023-04-25T13:47:43;11.50;81.80
3492;DHT22;1760;52.480;13.422;2023-04-25T13:50:10;11.50;82.60
3492;DHT22;1760;52.480;13.422;2023-04-25T13:52:37;11.50;82.30
3492;DHT22;1760;52.480;13.422;2023-04-25T13:55:07;11.60;82.80
3492;DHT22;1760;52.480;13.422;2023-04-25T13:57:36;11.70;82.00
3492;DHT22;1760;52.480;13.422;2023-04-25T14:00:04;11.80;83.70
3492;DHT22;1760;52.480;13.422;2023-04-25T14:02:34;12.00;82.90
3492;DHT22;1760;52.480;13.422;2023-04-25T14:05:01;12.10;83.10
3492;DHT22;1760;52.480;13.422;2023-04-25T14:07:28;12.10;82.60
3492;DHT22;1760;52.480;13.422;2023-04-25T14:09:56;12.00;81.20
3492;DHT22;1760;52.480;13.422;2023-04-25T14:12:24;11.80;82.50
3492;DHT22;1760;52.480;13.422;2023-04-25T14:14:52;11.60;82.90
3492;DHT22;1760;52.480;13.422;2023-04-25T14:17:19;11.30;83.60
3492;DHT22;1760;52.480;13.422;2023-04-25T14:19:46;11.20;85.20
3492;DHT22;1760;52.480;13.422;2023-04-25T14:22:14;11.10;85.50
3492;DHT22;1760;52.480;13.422;2023-04-25T14:24:41;11.00;84.70
3492;DHT22;1760;52.480;13.422;2023-04-25T14:27:08;11.00;84.70
3492;DHT22;1760;52.480;13.422;2023-04-25T14:29:35;10.90;84.80
3492;DHT22;1760;52.480;13.422;2023-04-25T14:32:04;10.70;83.80
3492;DHT22;1760;52.480;13.422;2023-04-25T14:34:32;10.70;84.60
3492;DHT22;1760;52.480;13.422;2023-04-25T14:36:59;10.50;85.60
3492;DHT22;1760;52.480;13.422;2023-04-25T14:39:26;10.50;86.90
3492;DHT22;1760;52.480;13.422;2023-04-25T14:41:53;10.50;87.30
3492;DHT22;1760;52.480;13.422;2023-04-25T14:44:21;10.50;85.50
3492;DHT22;1760;52.480;13.422;2023-04-25T14:46:48;10.50;87.80
3492;DHT22;1760;52.480;13.422;2023-04-25T14:49:18;10.70;87.60
3492;DHT22;1760;52.480;13.422;2023-04-25T14:51:45;10.70;87.80
3492;DHT22;1760;52.480;13.422;2023-04-25T14:54:12;10.70;86.80
3492;DHT22;1760;52.480;13.422;2023-04-25T14:56:40;10.70;88.20
3492;DHT22;1760;52.480;13.422;2023-04-25T14:59:07;10.70;89.00
3492;DHT22;1760;52.480;13.422;2023-04-25T15:01:34;10.70;90.10
3492;DHT22;1760;52.480;13.422;2023-04-25T15:04:02;10.60;90.50
3492;DHT22;1760;52.480;13.422;2023-04-25T15:06:33;10.60;90.80
3492;DHT22;1760;52.480;13.422;2023-04-25T15:09:02;10.60;90.80
3492;DHT22;1760;52.480;13.422;2023-04-25T15:11:30;10.70;91.40
3492;DHT22;1760;52.480;13.422;2023-04-25T15:13:57;10.60;92.10
3492;DHT22;1760;52.480;13.422;2023-04-25T15:16:24;10.50;92.80
3492;DHT22;1760;52.480;13.422;2023-04-25T15:18:51;10.50;93.50
3492;DHT22;1760;52.480;13.422;2023-04-25T15:21:21;10.50;93.70
3492;DHT22;1760;52.480;13.422;2023-04-25T15:23:49;10.50;94.00
3492;DHT22;1760;52.480;13.422;2023-04-25T15:26:16;10.50;94.10
3492;DHT22;1760;52.480;13.422;2023-04-25T15:28:43;10.60;94.40
3492;DHT22;1760;52.480;13.422;2023-04-25T15:31:11;10.90;93.90
3492;DHT22;1760;52.480;13.422;2023-04-25T15:33:38;10.70;93.60
3492;DHT22;1760;52.480;13.422;2023-04-25T15:36:05;10.80;93.20
3492;DHT22;1760;52.480;13.422;2023-04-25T15:38:32;10.90;92.30
3492;DHT22;1760;52.480;13.422;2023-04-25T15:41:01;10.90;92.60
3492;DHT22;1760;52.480;13.422;2023-04-25T15:43:28;11.00;92.40
3492;DHT22;1760;52.480;13.422;2023-04-25T15:45:55;10.90;91.60
3492;DHT22;1760;52.480;13.422;2023-04-25T15:48:21;10.80;92.10
3492;DHT22;1760;52.480;13.422;2023-04-25T15:50:48;10.70;92.50
3492;DHT22;1760;52.480;13.422;2023-04-25T15:53:16;10.70;92.80
3492;DHT22;1760;52.480;13.422;2023-04-25T15:55:42;10.80;92.60
3492;DHT22;1760;52.480;13.422;2023-04-25T15:58:11;10.80;92.70
3492;DHT22;1760;52.480;13.422;2023-04-25T16:00:38;10.90;92.20